Terminal Aerodrome Forecast
Issued by NWS

Home | Current Version | Previous Version | Text Only | Print | Product List | Glossary On
Versions: 1 2 3 4 5 6 7 8 9 10 11 12 13 14 15
000
FTUS42 KFFC 191136
TAFPDK
TAF
KPDK 191136Z 1912/2012 31006KT P6SM SCT120 BKN250
     FM191500 35004KT P6SM BKN150
     FM191800 01004KT P6SM OVC120
     FM200300 04005KT P6SM VCSH BKN040 OVC080
     FM200700 06004KT P6SM -SHRA OVC035=

USA.gov is the U.S. government's official web portal to all federal, state and local government web resources and services.